Time;durP1;ratioP1;P1;durP2;ratioP2;P2;SDS_P1;SDS_P2;PMS_P1;PMS_P2;Temp;Humidity;BMP_temperature;BMP_pressure;BME280_temperature;BME280_humidity;BME280_pressure;Samples;Min_cycle;Max_cycle;Signal;HPM_P1;HPM_P2
2021/12/18 00:00:44;;;;;;;;;;;;;;;9.79;44.06;100794.84;4465954;32;33209;-73
2021/12/18 00:03:12;;;;;;;;;;;;;;;9.82;43.89;100786.66;4475587;32;35074;-76
2021/12/18 00:05:39;;;;;;;;;;;;;;;9.21;45.02;100785.53;4478618;32;34072;-75
2021/12/18 00:08:06;;;;;;;;;;;;;;;9.23;45.95;100790.75;4469739;32;34474;-75
2021/12/18 00:10:34;;;;;;;;;;;;;;;8.63;49.08;100793.81;4467809;32;33643;-75
2021/12/18 00:13:02;;;;;;;;;;;;;;;9.48;45.53;100788.53;4474871;31;35118;-75
2021/12/18 00:15:29;;;;;;;;;;;;;;;9.58;45.02;100788.88;4467961;32;32904;-75
2021/12/18 00:17:57;;;;;;;;;;;;;;;9.30;44.93;100785.00;4467757;32;35001;-77
2021/12/18 00:20:26;;;;;;;;;;;;;;;8.83;46.65;100792.84;4465185;32;33427;-73
2021/12/18 00:22:53;;;;;;;;;;;;;;;9.17;45.30;100796.44;4465307;32;34188;-74
2021/12/18 00:25:21;;;;;;;;;;;;;;;8.94;46.83;100801.16;4466183;32;35085;-74
2021/12/18 00:27:49;;;;;;;;;;;;;;;8.74;46.95;100809.31;4472559;32;33904;-75
2021/12/18 00:30:17;;;;;;;;;;;;;;;8.27;49.09;100808.00;4468419;32;34090;-74
2021/12/18 00:32:44;;;;;;;;;;;;;;;8.68;47.44;100810.47;4465918;32;33788;-72
2021/12/18 00:35:12;;;;;;;;;;;;;;;9.08;45.97;100812.00;4467547;32;34427;-73
2021/12/18 00:37:39;;;;;;;;;;;;;;;9.49;45.98;100814.28;4465384;32;34180;-74
2021/12/18 00:40:11;;;;;;;;;;;;;;;8.57;47.46;100816.37;4464627;32;33536;-73
2021/12/18 00:42:44;;;;;;;;;;;;;;;9.17;45.89;100815.12;4468102;32;34317;-74
2021/12/18 00:45:14;;;;;;;;;;;;;;;8.97;46.26;100816.16;4467105;32;34322;-74
2021/12/18 00:47:42;;;;;;;;;;;;;;;8.55;46.93;100823.56;4469612;32;35022;-76
2021/12/18 00:50:10;;;;;;;;;;;;;;;9.05;47.03;100821.94;4468667;32;34127;-71
2021/12/18 00:52:38;;;;;;;;;;;;;;;9.17;46.22;100809.78;4468463;32;34173;-73
2021/12/18 00:55:06;;;;;;;;;;;;;;;9.00;47.15;100816.00;4466418;32;34294;-77
2021/12/18 00:57:33;;;;;;;;;;;;;;;9.13;47.19;100813.56;4475594;32;34859;-75
2021/12/18 01:00:03;;;;;;;;;;;;;;;8.72;48.05;100816.53;4470060;32;33429;-77
2021/12/18 01:02:30;;;;;;;;;;;;;;;8.86;47.20;100814.03;4465279;32;33848;-74
2021/12/18 01:04:58;;;;;;;;;;;;;;;8.72;47.89;100811.19;4465642;32;33078;-77
2021/12/18 01:07:25;;;;;;;;;;;;;;;7.99;49.22;100808.44;4465706;32;33952;-74
2021/12/18 01:10:13;;;;;;;;;;;;;;;8.51;49.67;100808.66;4467566;32;34450;-72
2021/12/18 01:12:44;;;;;;;;;;;;;;;8.17;50.09;100809.38;4467468;32;34140;-74
2021/12/18 01:15:21;;;;;;;;;;;;;;;8.24;50.28;100812.63;4468369;32;35445;-73
2021/12/18 01:23:22;;;;;;;;;;;;;;;8.39;49.11;100823.44;4468873;31;34120;-71
2021/12/18 01:25:50;;;;;;;;;;;;;;;8.48;48.75;100827.47;4468196;32;33966;-72
2021/12/18 01:28:17;;;;;;;;;;;;;;;8.22;49.52;100828.72;4467010;32;34081;-74
2021/12/18 01:30:45;;;;;;;;;;;;;;;8.23;50.52;100832.25;4469920;32;33500;-77
2021/12/18 01:33:12;;;;;;;;;;;;;;;8.33;49.82;100852.19;4466426;32;35147;-74
2021/12/18 01:35:39;;;;;;;;;;;;;;;8.37;50.77;100851.97;4464617;32;35398;-74
2021/12/18 01:38:07;;;;;;;;;;;;;;;8.05;51.08;100849.97;4480005;32;34225;-74
2021/12/18 01:40:34;;;;;;;;;;;;;;;8.19;50.06;100852.00;4466634;32;33043;-74
2021/12/18 01:46:06;;;;;;;;;;;;;;;8.40;49.17;100856.31;4473594;32;34392;-72
2021/12/18 01:51:24;;;;;;;;;;;;;;;7.87;52.16;100841.03;4477846;31;33288;-75
2021/12/18 01:53:52;;;;;;;;;;;;;;;7.90;50.69;100849.75;4474069;32;33970;-77
2021/12/18 01:56:21;;;;;;;;;;;;;;;8.08;52.23;100856.00;4465510;32;34351;-74
2021/12/18 01:58:49;;;;;;;;;;;;;;;8.08;50.43;100853.34;4472525;32;32347;-76
2021/12/18 02:01:17;;;;;;;;;;;;;;;8.44;49.50;100857.91;4471257;32;31684;-79
2021/12/18 02:03:44;;;;;;;;;;;;;;;8.29;50.13;100854.16;4466508;32;35059;-78
2021/12/18 02:06:12;;;;;;;;;;;;;;;7.59;51.01;100863.59;4474318;31;35020;-75
2021/12/18 02:08:40;;;;;;;;;;;;;;;8.54;48.85;100852.97;4467312;32;33784;-81
2021/12/18 02:21:50;;;;;;;;;;;;;;;8.57;48.63;100877.75;4470931;32;32957;-75
2021/12/18 02:24:19;;;;;;;;;;;;;;;8.50;48.92;100881.63;4467466;32;35010;-75
2021/12/18 02:26:46;;;;;;;;;;;;;;;8.60;49.87;100879.38;4468356;32;32989;-75
2021/12/18 02:29:15;;;;;;;;;;;;;;;8.33;48.95;100889.53;4471745;32;34077;-77
2021/12/18 02:31:43;;;;;;;;;;;;;;;8.35;49.53;100875.19;4471654;32;33302;-80
2021/12/18 02:34:17;;;;;;;;;;;;;;;9.00;48.08;100888.97;4478280;31;34214;-75
2021/12/18 02:36:48;;;;;;;;;;;;;;;9.29;46.81;100881.28;4471849;32;32895;-71
2021/12/18 02:39:25;;;;;;;;;;;;;;;8.61;48.60;100881.97;4472190;32;34680;-70
2021/12/18 02:42:09;;;;;;;;;;;;;;;8.36;48.69;100886.72;4466526;32;33404;-72
2021/12/18 02:44:39;;;;;;;;;;;;;;;8.60;47.99;100880.25;4472908;32;32535;-72
2021/12/18 02:47:07;;;;;;;;;;;;;;;8.92;47.29;100885.78;4473504;32;34393;-71
2021/12/18 02:49:34;;;;;;;;;;;;;;;9.09;47.29;100899.19;4470551;32;33891;-72
2021/12/18 02:52:02;;;;;;;;;;;;;;;8.12;49.09;100904.72;4465542;32;33095;-71
2021/12/18 02:54:29;;;;;;;;;;;;;;;8.63;47.92;100900.56;4470745;32;33610;-71
2021/12/18 02:56:56;;;;;;;;;;;;;;;8.83;47.21;100905.81;4468465;32;34149;-71
2021/12/18 02:59:25;;;;;;;;;;;;;;;8.71;47.42;100893.06;4470053;32;33980;-71
2021/12/18 03:01:52;;;;;;;;;;;;;;;8.69;47.51;100899.41;4474652;31;33045;-73
2021/12/18 03:04:31;;;;;;;;;;;;;;;8.99;47.92;100883.69;4474314;32;34383;-72
2021/12/18 03:07:02;;;;;;;;;;;;;;;8.92;48.21;100892.94;4466354;32;35472;-71
2021/12/18 03:18:56;;;;;;;;;;;;;;;8.98;47.31;100895.31;4472863;32;33205;-71
2021/12/18 03:25:58;;;;;;;;;;;;;;;8.55;47.96;100924.13;4473841;32;35270;-71
2021/12/18 03:28:26;;;;;;;;;;;;;;;8.54;48.44;100925.03;4469577;32;35302;-72
2021/12/18 03:30:55;;;;;;;;;;;;;;;8.94;47.38;100921.31;4470679;32;32203;-73
2021/12/18 03:33:23;;;;;;;;;;;;;;;7.64;50.43;100927.31;4468645;32;32017;-74
2021/12/18 03:35:51;;;;;;;;;;;;;;;7.96;50.02;100933.91;4477570;32;33034;-72
2021/12/18 03:38:18;;;;;;;;;;;;;;;8.16;49.06;100931.19;4473850;31;32922;-70
2021/12/18 03:40:45;;;;;;;;;;;;;;;8.37;48.56;100929.31;4477456;32;32750;-70
2021/12/18 03:43:13;;;;;;;;;;;;;;;8.29;48.44;100942.19;4471013;32;33131;-70
2021/12/18 03:45:40;;;;;;;;;;;;;;;7.66;50.58;100937.00;4476704;31;33798;-72
2021/12/18 03:48:07;;;;;;;;;;;;;;;7.96;50.10;100935.69;4472132;32;34595;-70
2021/12/18 03:50:35;;;;;;;;;;;;;;;7.73;50.60;100929.59;4477672;31;34137;-71
2021/12/18 03:53:02;;;;;;;;;;;;;;;7.26;51.32;100924.53;4475794;32;33461;-73
2021/12/18 03:55:29;;;;;;;;;;;;;;;7.95;50.70;100924.16;4466363;32;33997;-72
2021/12/18 03:57:57;;;;;;;;;;;;;;;7.26;51.19;100929.00;4467460;32;35482;-70
2021/12/18 04:00:24;;;;;;;;;;;;;;;7.34;51.80;100933.06;4471431;32;33630;-69
2021/12/18 04:02:52;;;;;;;;;;;;;;;6.98;52.55;100940.78;4474451;32;33451;-72
2021/12/18 04:05:20;;;;;;;;;;;;;;;7.11;52.10;100950.00;4473399;32;35088;-70
2021/12/18 04:07:49;;;;;;;;;;;;;;;7.26;51.26;100947.62;4474970;32;34417;-70
2021/12/18 04:10:17;;;;;;;;;;;;;;;7.00;51.88;100953.09;4474423;32;34144;-70
2021/12/18 04:12:46;;;;;;;;;;;;;;;6.87;53.17;100941.22;4471308;32;31576;-71
2021/12/18 04:15:13;;;;;;;;;;;;;;;6.54;53.29;100930.12;4468126;32;34153;-71
2021/12/18 04:17:40;;;;;;;;;;;;;;;7.33;52.18;100941.13;4470460;32;34309;-73
2021/12/18 04:20:09;;;;;;;;;;;;;;;7.23;53.95;100930.00;4467936;32;34118;-73
2021/12/18 04:22:36;;;;;;;;;;;;;;;7.41;52.65;100920.34;4466415;32;32745;-73
2021/12/18 04:25:03;;;;;;;;;;;;;;;7.77;50.93;100923.22;4468803;32;34032;-73
2021/12/18 04:27:31;;;;;;;;;;;;;;;8.55;48.63;100932.13;4474447;31;34412;-71
2021/12/18 04:29:58;;;;;;;;;;;;;;;8.00;51.32;100939.97;4471616;32;34980;-76
2021/12/18 04:32:25;;;;;;;;;;;;;;;7.88;49.49;100950.25;4466418;31;32925;-75
2021/12/18 04:34:53;;;;;;;;;;;;;;;8.19;49.80;100940.88;4472169;32;32395;-75
2021/12/18 04:37:20;;;;;;;;;;;;;;;8.15;49.31;100944.59;4468234;32;34187;-76
2021/12/18 04:39:48;;;;;;;;;;;;;;;7.95;51.00;100953.50;4472978;32;34351;-75
2021/12/18 04:42:15;;;;;;;;;;;;;;;7.93;50.27;100947.38;4467326;32;33407;-75
2021/12/18 04:44:43;;;;;;;;;;;;;;;8.27;49.17;100949.37;4472004;32;35184;-75
2021/12/18 04:47:10;;;;;;;;;;;;;;;8.11;49.40;100959.88;4474905;32;34413;-74
2021/12/18 04:49:37;;;;;;;;;;;;;;;8.73;47.92;100965.06;4473515;31;33028;-75
2021/12/18 04:52:05;;;;;;;;;;;;;;;8.03;50.32;100970.03;4473943;32;33714;-75
2021/12/18 04:54:32;;;;;;;;;;;;;;;8.99;47.82;100975.38;4474194;31;32686;-73
2021/12/18 04:57:00;;;;;;;;;;;;;;;8.40;48.21;100987.06;4468728;32;33533;-72
2021/12/18 04:59:27;;;;;;;;;;;;;;;8.27;49.17;100988.53;4471629;32;34069;-70
2021/12/18 05:01:55;;;;;;;;;;;;;;;8.17;47.96;101002.25;4472125;32;33125;-71
2021/12/18 05:04:22;;;;;;;;;;;;;;;8.79;46.50;100996.78;4475877;32;34259;-71
2021/12/18 05:06:52;;;;;;;;;;;;;;;8.77;46.12;101002.22;4476591;31;33630;-72
2021/12/18 05:09:19;;;;;;;;;;;;;;;8.74;47.50;101009.50;4474006;32;34958;-70
2021/12/18 05:11:49;;;;;;;;;;;;;;;8.54;47.26;101005.09;4468143;32;34707;-76
2021/12/18 05:14:16;;;;;;;;;;;;;;;8.82;46.81;101020.69;4471008;32;35158;-74
2021/12/18 05:16:45;;;;;;;;;;;;;;;9.32;45.59;101022.72;4471249;32;35757;-71
2021/12/18 05:19:12;;;;;;;;;;;;;;;9.70;44.05;101022.63;4474423;32;33318;-77
2021/12/18 05:21:39;;;;;;;;;;;;;;;9.91;44.58;101037.56;4473824;32;31928;-73
2021/12/18 05:24:07;;;;;;;;;;;;;;;10.22;42.67;101022.59;4469791;32;34051;-76
2021/12/18 05:26:34;;;;;;;;;;;;;;;10.89;41.21;101029.66;4472027;32;34384;-76
2021/12/18 05:29:02;;;;;;;;;;;;;;;11.09;40.34;101035.72;4468734;32;34029;-73
2021/12/18 05:31:29;;;;;;;;;;;;;;;11.40;39.51;101035.72;4472329;32;31994;-73
2021/12/18 05:34:00;;;;;;;;;;;;;;;11.37;39.39;101035.03;4476541;31;34153;-73
2021/12/18 05:37:11;;;;;;;;;;;;;;;11.34;39.54;101036.06;4464121;32;34332;-72
2021/12/18 05:39:22;;;;;;;;;;;;;;;11.66;38.43;101036.87;4472979;31;33935;-71
2021/12/18 05:41:50;;;;;;;;;;;;;;;11.88;37.96;101039.19;4470299;32;34532;-71
2021/12/18 05:44:18;;;;;;;;;;;;;;;11.82;38.64;101035.97;4469854;31;35134;-71
2021/12/18 05:46:46;;;;;;;;;;;;;;;11.20;39.20;101033.28;4475856;32;35357;-73
2021/12/18 05:49:13;;;;;;;;;;;;;;;11.58;38.56;101035.56;4459157;32;34158;-70
2021/12/18 05:51:42;;;;;;;;;;;;;;;11.19;39.88;101042.28;4477162;32;33268;-71
2021/12/18 05:54:10;;;;;;;;;;;;;;;11.33;39.83;101042.38;4467674;32;32609;-70
2021/12/18 05:56:38;;;;;;;;;;;;;;;11.43;39.40;101043.56;4474684;32;34243;-69
2021/12/18 05:59:05;;;;;;;;;;;;;;;11.40;40.03;101056.28;4472002;32;34340;-70
2021/12/18 06:01:33;;;;;;;;;;;;;;;11.30;39.75;101060.44;4469061;32;33024;-70
2021/12/18 06:04:00;;;;;;;;;;;;;;;11.27;40.16;101057.91;4472467;32;34091;-69
2021/12/18 06:06:30;;;;;;;;;;;;;;;11.62;39.30;101058.56;4472318;32;35452;-69
2021/12/18 06:08:57;;;;;;;;;;;;;;;11.13;40.92;101062.25;4472786;32;33652;-71
2021/12/18 06:11:27;;;;;;;;;;;;;;;11.84;38.82;101055.50;4471774;31;33494;-69
2021/12/18 06:13:54;;;;;;;;;;;;;;;12.08;37.51;101047.84;4472173;32;34518;-68
2021/12/18 06:16:22;;;;;;;;;;;;;;;12.01;39.39;101050.03;4476157;31;34569;-69
2021/12/18 06:18:51;;;;;;;;;;;;;;;12.56;36.86;101067.28;4465410;32;34987;-71
2021/12/18 06:21:19;;;;;;;;;;;;;;;12.92;36.24;101066.78;4470018;31;33380;-69
2021/12/18 06:23:47;;;;;;;;;;;;;;;12.94;36.05;101069.41;4472082;32;35121;-71
2021/12/18 06:26:15;;;;;;;;;;;;;;;13.13;35.87;101063.66;4478239;32;34000;-75
2021/12/18 06:28:42;;;;;;;;;;;;;;;13.31;35.29;101061.66;4468884;31;33897;-75
2021/12/18 06:31:29;;;;;;;;;;;;;;;13.11;35.15;101077.22;4472228;32;33626;-77
2021/12/18 06:33:57;;;;;;;;;;;;;;;13.07;35.37;101067.66;4473625;32;32688;-76
2021/12/18 06:36:25;;;;;;;;;;;;;;;13.08;35.99;101057.75;4469953;32;32912;-81
2021/12/18 06:38:52;;;;;;;;;;;;;;;13.27;35.20;101058.31;4472189;32;32728;-72
2021/12/18 06:41:20;;;;;;;;;;;;;;;12.83;35.91;101062.00;4472317;32;33219;-72
2021/12/18 06:43:47;;;;;;;;;;;;;;;13.51;34.51;101078.22;4465799;32;35102;-72
2021/12/18 06:46:15;;;;;;;;;;;;;;;13.72;34.02;101073.25;4473385;32;35484;-70
2021/12/18 06:48:42;;;;;;;;;;;;;;;14.11;33.56;101086.81;4471827;32;34022;-73
2021/12/18 06:51:09;;;;;;;;;;;;;;;14.37;32.68;101093.94;4472323;32;33483;-74
2021/12/18 06:53:37;;;;;;;;;;;;;;;15.42;31.46;101087.38;4479078;32;34702;-72
2021/12/18 06:56:04;;;;;;;;;;;;;;;16.47;28.97;101094.72;4474352;32;34264;-73
2021/12/18 06:58:32;;;;;;;;;;;;;;;15.86;29.77;101095.84;4474480;32;34347;-72
2021/12/18 07:00:59;;;;;;;;;;;;;;;15.75;30.34;101094.84;4475237;32;33345;-72
2021/12/18 07:03:27;;;;;;;;;;;;;;;15.89;29.69;101088.41;4471293;32;34594;-72
2021/12/18 07:05:54;;;;;;;;;;;;;;;16.35;28.98;101087.56;4472625;32;34550;-72
2021/12/18 07:08:22;;;;;;;;;;;;;;;15.62;31.23;101091.31;4472992;32;34281;-72
2021/12/18 07:10:49;;;;;;;;;;;;;;;16.50;29.32;101086.38;4473061;32;34643;-73
2021/12/18 07:13:16;;;;;;;;;;;;;;;16.84;28.40;101081.03;4478869;32;34180;-73
2021/12/18 07:15:44;;;;;;;;;;;;;;;16.65;28.84;101086.16;4478064;32;34086;-73
2021/12/18 07:18:11;;;;;;;;;;;;;;;16.76;28.98;101088.91;4476505;32;34424;-74
2021/12/18 07:20:39;;;;;;;;;;;;;;;16.57;28.86;101085.91;4473433;32;33352;-73
2021/12/18 07:23:06;;;;;;;;;;;;;;;16.82;28.42;101085.72;4477013;32;34078;-73
2021/12/18 07:25:34;;;;;;;;;;;;;;;17.12;28.07;101085.09;4471177;32;34941;-73
2021/12/18 07:28:01;;;;;;;;;;;;;;;16.73;28.68;101083.72;4475834;32;34286;-73
2021/12/18 07:30:28;;;;;;;;;;;;;;;17.06;27.96;101085.56;4474974;32;33766;-73
2021/12/18 07:32:56;;;;;;;;;;;;;;;16.50;29.18;101080.09;4471890;32;34099;-73
2021/12/18 07:35:23;;;;;;;;;;;;;;;18.07;27.17;101092.59;4468821;32;35646;-73
2021/12/18 07:37:50;;;;;;;;;;;;;;;18.03;26.88;101097.41;4474710;32;34106;-73
2021/12/18 07:40:18;;;;;;;;;;;;;;;17.63;27.98;101100.75;4477435;32;33693;-73
2021/12/18 07:42:45;;;;;;;;;;;;;;;17.55;27.62;101113.19;4478176;32;35237;-73
2021/12/18 07:45:13;;;;;;;;;;;;;;;17.63;27.08;101103.44;4472628;32;34829;-73
2021/12/18 07:47:40;;;;;;;;;;;;;;;18.00;26.61;101107.66;4472153;32;34012;-73
2021/12/18 07:50:12;;;;;;;;;;;;;;;18.32;26.43;101113.03;4471261;32;33184;-72
2021/12/18 07:52:40;;;;;;;;;;;;;;;17.55;27.25;101121.28;4475605;32;33774;-72
2021/12/18 07:55:07;;;;;;;;;;;;;;;17.51;28.31;101123.41;4471453;32;34384;-72
2021/12/18 07:57:35;;;;;;;;;;;;;;;17.86;27.81;101120.50;4474279;32;33805;-72
2021/12/18 08:00:04;;;;;;;;;;;;;;;18.51;26.40;101128.59;4475026;32;34012;-71
2021/12/18 08:02:33;;;;;;;;;;;;;;;19.92;25.10;101132.34;4474925;32;32418;-71
2021/12/18 08:05:00;;;;;;;;;;;;;;;20.83;23.97;101141.03;4471837;32;33052;-71
2021/12/18 08:07:28;;;;;;;;;;;;;;;19.57;25.11;101125.53;4474195;32;34311;-71
2021/12/18 08:09:55;;;;;;;;;;;;;;;19.01;25.45;101117.94;4475034;32;34565;-72
2021/12/18 08:12:22;;;;;;;;;;;;;;;19.12;25.35;101114.25;4478219;32;33152;-71
2021/12/18 08:14:50;;;;;;;;;;;;;;;17.10;29.03;101114.09;4474631;32;34906;-71
2021/12/18 08:17:17;;;;;;;;;;;;;;;18.14;26.85;101116.34;4474839;32;32986;-71
2021/12/18 08:19:46;;;;;;;;;;;;;;;17.30;28.58;101119.72;4474506;32;33256;-72
2021/12/18 08:22:13;;;;;;;;;;;;;;;16.91;30.34;101130.94;4475673;32;34184;-72
2021/12/18 08:24:40;;;;;;;;;;;;;;;17.78;27.58;101131.09;4471414;32;35007;-72
2021/12/18 08:27:08;;;;;;;;;;;;;;;18.15;27.12;101123.47;4476031;32;35098;-73
2021/12/18 08:29:36;;;;;;;;;;;;;;;18.16;27.61;101122.47;4475984;32;33328;-72
2021/12/18 08:32:04;;;;;;;;;;;;;;;17.80;27.34;101122.88;4475507;32;33952;-72
2021/12/18 08:34:31;;;;;;;;;;;;;;;18.98;26.13;101118.19;4472493;32;34162;-72
2021/12/18 08:36:59;;;;;;;;;;;;;;;17.77;27.50;101115.84;4471877;32;33155;-72
2021/12/18 08:39:27;;;;;;;;;;;;;;;18.23;27.42;101114.69;4476477;32;33301;-72
2021/12/18 08:41:55;;;;;;;;;;;;;;;18.41;26.54;101116.81;4475408;32;35010;-72
2021/12/18 08:44:22;;;;;;;;;;;;;;;18.02;27.48;101125.50;4467679;32;32634;-71
2021/12/18 08:46:49;;;;;;;;;;;;;;;17.55;28.17;101116.75;4472142;32;34286;-71
2021/12/18 08:49:17;;;;;;;;;;;;;;;15.76;30.61;101117.28;4477770;32;34301;-72
2021/12/18 08:51:44;;;;;;;;;;;;;;;15.46;30.52;101115.00;4477438;32;34298;-71
2021/12/18 08:54:11;;;;;;;;;;;;;;;15.40;31.26;101118.16;4476871;32;35134;-71
2021/12/18 08:56:59;;;;;;;;;;;;;;;13.92;34.47;101125.72;4478262;32;34777;-71
2021/12/18 08:59:26;;;;;;;;;;;;;;;14.80;32.31;101114.34;4475398;32;32079;-73
2021/12/18 09:01:54;;;;;;;;;;;;;;;16.40;29.85;101116.94;4471339;32;33978;-73
2021/12/18 09:04:21;;;;;;;;;;;;;;;15.35;31.50;101118.50;4468383;32;34112;-72
2021/12/18 09:06:49;;;;;;;;;;;;;;;17.31;28.65;101118.78;4471462;32;35171;-72
2021/12/18 09:09:16;;;;;;;;;;;;;;;16.97;28.12;101116.91;4476433;32;33460;-72
2021/12/18 09:11:43;;;;;;;;;;;;;;;16.77;29.15;101121.22;4468890;32;34141;-72
2021/12/18 09:14:11;;;;;;;;;;;;;;;15.40;30.82;101113.59;4472982;32;35381;-73
2021/12/18 09:16:38;;;;;;;;;;;;;;;16.07;29.84;101111.28;4471152;32;35225;-75
2021/12/18 09:19:05;;;;;;;;;;;;;;;15.76;30.15;101114.59;4475381;32;32904;-74
2021/12/18 09:21:33;;;;;;;;;;;;;;;14.73;32.81;101116.62;4476633;32;34281;-73
2021/12/18 09:24:00;;;;;;;;;;;;;;;15.22;31.11;101112.28;4471527;32;34003;-75
2021/12/18 09:26:27;;;;;;;;;;;;;;;16.86;29.35;101114.22;4475593;32;34776;-73
2021/12/18 09:28:55;;;;;;;;;;;;;;;16.93;28.65;101107.34;4476960;32;33544;-75
2021/12/18 09:31:23;;;;;;;;;;;;;;;16.92;28.13;101110.19;4448527;32;825283;-74
2021/12/18 09:33:51;;;;;;;;;;;;;;;17.04;28.17;101111.03;4473923;32;35578;-74
2021/12/18 09:36:19;;;;;;;;;;;;;;;17.06;28.50;101109.06;4467205;32;34322;-74
2021/12/18 09:38:46;;;;;;;;;;;;;;;15.91;30.10;101108.03;4472513;32;32693;-74
2021/12/18 09:41:14;;;;;;;;;;;;;;;15.87;30.44;101103.84;4471288;32;35032;-74
2021/12/18 09:43:41;;;;;;;;;;;;;;;15.79;30.66;101103.56;4475961;32;34121;-74
2021/12/18 09:46:10;;;;;;;;;;;;;;;16.42;28.92;101107.72;4473485;32;35457;-75
2021/12/18 09:48:38;;;;;;;;;;;;;;;17.65;27.29;101116.84;4472602;32;33662;-75
2021/12/18 09:51:11;;;;;;;;;;;;;;;18.39;26.08;101112.41;4474522;32;33918;-74
2021/12/18 09:53:39;;;;;;;;;;;;;;;19.11;24.79;101107.97;4473212;32;33693;-74
2021/12/18 09:56:07;;;;;;;;;;;;;;;16.14;28.89;101098.19;4474447;32;33828;-73
2021/12/18 09:58:34;;;;;;;;;;;;;;;15.88;28.77;101105.56;4469446;32;34519;-74
2021/12/18 10:01:02;;;;;;;;;;;;;;;16.43;29.47;101100.47;4476099;32;34111;-74
2021/12/18 10:03:42;;;;;;;;;;;;;;;16.31;29.22;101096.91;4473010;32;34271;-73
2021/12/18 10:06:29;;;;;;;;;;;;;;;15.59;29.97;101100.47;4467925;32;34203;-74
2021/12/18 10:08:57;;;;;;;;;;;;;;;15.89;30.05;101098.31;4475114;32;32789;-76
2021/12/18 10:11:24;;;;;;;;;;;;;;;16.34;29.73;101099.38;4478443;32;35201;-74
2021/12/18 10:13:53;;;;;;;;;;;;;;;16.51;28.88;101107.00;4474468;32;34340;-72
2021/12/18 10:16:22;;;;;;;;;;;;;;;16.38;28.93;101092.75;4472671;32;34284;-74
2021/12/18 10:18:50;;;;;;;;;;;;;;;16.49;28.72;101103.56;4471671;32;33382;-73
2021/12/18 10:21:19;;;;;;;;;;;;;;;17.27;27.49;101096.50;4473992;32;34215;-78
2021/12/18 10:23:48;;;;;;;;;;;;;;;17.71;27.20;101094.69;4476200;32;35237;-75
2021/12/18 10:26:35;;;;;;;;;;;;;;;17.79;27.64;101097.66;4476260;32;34872;-76
2021/12/18 10:29:07;;;;;;;;;;;;;;;18.24;26.58;101093.88;4468674;32;33460;-74
2021/12/18 10:31:38;;;;;;;;;;;;;;;18.48;25.68;101083.63;4468954;32;34620;-79
2021/12/18 10:34:14;;;;;;;;;;;;;;;18.68;25.36;101084.56;4475354;32;32913;-74
2021/12/18 10:36:42;;;;;;;;;;;;;;;18.83;24.96;101083.28;4474853;32;34091;-75
2021/12/18 10:39:14;;;;;;;;;;;;;;;17.26;27.22;101073.12;4476404;32;32764;-74
2021/12/18 10:41:41;;;;;;;;;;;;;;;15.96;29.56;101068.06;4468762;32;33884;-73
2021/12/18 10:44:10;;;;;;;;;;;;;;;15.82;29.80;101068.22;4471224;32;33160;-75
2021/12/18 10:46:39;;;;;;;;;;;;;;;16.42;28.71;101061.78;4472370;32;34134;-72
2021/12/18 10:49:07;;;;;;;;;;;;;;;14.68;31.03;101048.72;4467885;32;34439;-73
2021/12/18 10:51:35;;;;;;;;;;;;;;;14.78;31.16;101046.22;4474472;32;33557;-79
2021/12/18 10:54:13;;;;;;;;;;;;;;;14.59;31.85;101044.84;4474824;32;35245;-77
2021/12/18 10:56:42;;;;;;;;;;;;;;;15.94;30.35;101037.59;4473666;32;32961;-77
2021/12/18 10:59:25;;;;;;;;;;;;;;;16.61;28.39;101042.28;4475418;32;34156;-76
2021/12/18 11:01:57;;;;;;;;;;;;;;;16.37;28.24;101042.41;4469602;32;34583;-77
2021/12/18 11:04:29;;;;;;;;;;;;;;;16.46;28.17;101025.44;4468507;32;35223;-82
2021/12/18 11:06:57;;;;;;;;;;;;;;;15.52;29.28;101030.91;4469948;32;35101;-81
2021/12/18 11:09:29;;;;;;;;;;;;;;;14.79;31.25;101035.31;4471841;32;34159;-76
2021/12/18 11:14:36;;;;;;;;;;;;;;;15.72;30.00;101011.38;4470790;32;32675;-77
2021/12/18 11:17:04;;;;;;;;;;;;;;;15.19;30.67;101007.31;4470527;32;34323;-77
2021/12/18 11:19:32;;;;;;;;;;;;;;;14.87;31.25;101000.59;4469912;32;34311;-80
2021/12/18 11:22:03;;;;;;;;;;;;;;;14.20;31.93;100984.72;4469876;32;34998;-76
2021/12/18 11:24:37;;;;;;;;;;;;;;;15.08;30.08;100981.97;4471032;32;34837;-76
2021/12/18 11:27:06;;;;;;;;;;;;;;;14.79;31.09;100977.88;4472277;32;34242;-76
2021/12/18 11:29:40;;;;;;;;;;;;;;;14.58;31.52;100986.56;4471343;32;33633;-77
2021/12/18 11:32:11;;;;;;;;;;;;;;;13.47;32.30;100970.94;4470501;32;32958;-83
2021/12/18 11:34:39;;;;;;;;;;;;;;;12.65;33.48;100977.19;4469164;32;34162;-78
2021/12/18 11:37:07;;;;;;;;;;;;;;;11.57;36.26;100975.72;4473828;32;32945;-80
2021/12/18 11:39:35;;;;;;;;;;;;;;;11.44;37.05;100972.03;4470862;32;33136;-77
2021/12/18 11:42:03;;;;;;;;;;;;;;;11.02;40.34;100970.03;4475190;32;32748;-76
2021/12/18 11:44:33;;;;;;;;;;;;;;;11.97;37.31;100961.75;4465337;32;34121;-77
2021/12/18 11:47:22;;;;;;;;;;;;;;;12.18;36.01;100965.81;4469815;32;34517;-77
2021/12/18 11:49:49;;;;;;;;;;;;;;;11.05;39.06;100968.06;4470710;32;33473;-80
2021/12/18 11:52:17;;;;;;;;;;;;;;;11.53;37.80;100965.28;4472045;32;33018;-77
2021/12/18 11:54:49;;;;;;;;;;;;;;;11.13;39.48;100960.41;4473084;32;34356;-77
2021/12/18 11:57:36;;;;;;;;;;;;;;;11.11;38.59;100961.50;4474782;32;34078;-77
2021/12/18 12:00:05;;;;;;;;;;;;;;;11.46;37.14;100963.91;4469256;32;33714;-77
2021/12/18 12:02:46;;;;;;;;;;;;;;;11.47;37.30;100969.19;4473271;32;32982;-79
2021/12/18 12:05:15;;;;;;;;;;;;;;;11.05;40.21;100961.84;4474690;32;34322;-77
2021/12/18 12:07:43;;;;;;;;;;;;;;;10.69;39.27;100954.94;4472273;32;34839;-75
2021/12/18 12:10:13;;;;;;;;;;;;;;;10.77;41.14;100952.69;4468180;32;31646;-77
2021/12/18 12:12:54;;;;;;;;;;;;;;;11.10;39.68;100955.25;4468710;32;32516;-77
2021/12/18 12:15:23;;;;;;;;;;;;;;;11.43;38.65;100952.44;4467176;32;37361;-81
2021/12/18 12:17:55;;;;;;;;;;;;;;;11.10;39.80;100951.69;4469624;32;34207;-76
2021/12/18 12:20:32;;;;;;;;;;;;;;;11.01;40.21;100949.53;4471878;32;33614;-76
2021/12/18 12:23:02;;;;;;;;;;;;;;;10.38;40.10;100947.75;4472623;32;34354;-77
2021/12/18 12:25:37;;;;;;;;;;;;;;;10.95;40.31;100962.34;4461141;32;32649;-76
2021/12/18 12:28:11;;;;;;;;;;;;;;;10.82;39.00;100961.34;4468402;32;33831;-76
2021/12/18 12:30:42;;;;;;;;;;;;;;;10.67;40.36;100955.00;4468578;32;33367;-76
2021/12/18 12:33:21;;;;;;;;;;;;;;;10.90;40.19;100947.50;4473864;32;34271;-76
2021/12/18 12:35:55;;;;;;;;;;;;;;;11.22;39.31;100951.00;4468427;32;34446;-76
2021/12/18 12:38:24;;;;;;;;;;;;;;;12.40;35.95;100954.59;4470935;32;35062;-76
2021/12/18 12:40:53;;;;;;;;;;;;;;;11.94;38.07;100957.47;4467228;32;31594;-76
2021/12/18 12:43:23;;;;;;;;;;;;;;;12.18;36.09;100955.06;4469209;32;34152;-74
2021/12/18 12:45:54;;;;;;;;;;;;;;;11.64;38.59;100954.78;4468797;32;34411;-74
2021/12/18 12:48:21;;;;;;;;;;;;;;;11.84;36.42;100966.97;4468885;32;34273;-74
2021/12/18 12:50:59;;;;;;;;;;;;;;;12.55;36.23;100956.31;4472496;32;33321;-74
2021/12/18 12:53:47;;;;;;;;;;;;;;;12.31;36.49;100955.16;4471637;32;32491;-74
2021/12/18 12:56:15;;;;;;;;;;;;;;;12.37;36.43;100948.56;4472406;32;33940;-74
2021/12/18 12:58:42;;;;;;;;;;;;;;;13.10;34.64;100935.75;4477283;32;34602;-78
2021/12/18 13:01:09;;;;;;;;;;;;;;;12.92;34.77;100942.31;4475791;32;34205;-75
2021/12/18 13:03:43;;;;;;;;;;;;;;;13.11;34.02;100948.19;4470841;32;35080;-74
2021/12/18 13:06:12;;;;;;;;;;;;;;;12.49;36.01;100953.16;4468384;32;35315;-76
2021/12/18 13:08:40;;;;;;;;;;;;;;;12.94;34.79;100943.09;4471779;32;34462;-75
2021/12/18 13:11:09;;;;;;;;;;;;;;;12.86;35.54;100953.47;4469679;32;33585;-74
2021/12/18 13:13:37;;;;;;;;;;;;;;;12.94;34.77;100951.16;4471584;32;33277;-74
2021/12/18 13:16:14;;;;;;;;;;;;;;;12.59;35.36;100946.22;4473625;32;33386;-75
2021/12/18 13:18:49;;;;;;;;;;;;;;;12.49;34.68;100931.69;4473637;32;33238;-74
2021/12/18 13:21:18;;;;;;;;;;;;;;;13.09;34.90;100919.69;4475630;32;32105;-79
2021/12/18 13:23:47;;;;;;;;;;;;;;;13.27;34.72;100922.03;4468351;32;35167;-74
2021/12/18 13:26:32;;;;;;;;;;;;;;;13.21;33.94;100929.63;4470643;32;34346;-78
2021/12/18 13:29:02;;;;;;;;;;;;;;;13.59;33.86;100928.91;4476371;32;35160;-75